sensor_id;sensor_type;location;lat;lon;timestamp;P1;durP1;ratioP1;P2;durP2;ratioP2
19043;SDS011;9654;52.302;8.120;2023-10-31T00:00:04;15.63;;;10.30;;
19043;SDS011;9654;52.302;8.120;2023-10-31T00:02:34;16.67;;;12.40;;
19043;SDS011;9654;52.302;8.120;2023-10-31T00:05:01;16.40;;;11.67;;
19043;SDS011;9654;52.302;8.120;2023-10-31T00:07:28;19.50;;;12.23;;
19043;SDS011;9654;52.302;8.120;2023-10-31T00:09:56;18.13;;;12.63;;
19043;SDS011;9654;52.302;8.120;2023-10-31T00:12:23;19.17;;;12.53;;
19043;SDS011;9654;52.302;8.120;2023-10-31T00:14:50;21.97;;;14.00;;
19043;SDS011;9654;52.302;8.120;2023-10-31T00:17:17;24.73;;;16.17;;
19043;SDS011;9654;52.302;8.120;2023-10-31T00:19:44;23.40;;;15.87;;
19043;SDS011;9654;52.302;8.120;2023-10-31T00:22:10;22.83;;;14.93;;
19043;SDS011;9654;52.302;8.120;2023-10-31T00:24:37;26.00;;;15.90;;
19043;SDS011;9654;52.302;8.120;2023-10-31T00:27:05;28.37;;;16.53;;
19043;SDS011;9654;52.302;8.120;2023-10-31T00:29:32;22.87;;;15.20;;
19043;SDS011;9654;52.302;8.120;2023-10-31T00:31:59;23.60;;;15.23;;
19043;SDS011;9654;52.302;8.120;2023-10-31T00:34:25;27.13;;;16.93;;
19043;SDS011;9654;52.302;8.120;2023-10-31T00:36:52;27.53;;;16.97;;
19043;SDS011;9654;52.302;8.120;2023-10-31T00:39:19;34.40;;;19.53;;
19043;SDS011;9654;52.302;8.120;2023-10-31T00:41:46;26.73;;;17.80;;
19043;SDS011;9654;52.302;8.120;2023-10-31T00:44:15;29.87;;;18.50;;
19043;SDS011;9654;52.302;8.120;2023-10-31T00:46:41;31.73;;;18.87;;
19043;SDS011;9654;52.302;8.120;2023-10-31T00:49:08;43.77;;;20.30;;
19043;SDS011;9654;52.302;8.120;2023-10-31T00:51:35;32.70;;;19.67;;
19043;SDS011;9654;52.302;8.120;2023-10-31T00:54:02;33.47;;;19.77;;
19043;SDS011;9654;52.302;8.120;2023-10-31T00:56:29;31.83;;;19.27;;
19043;SDS011;9654;52.302;8.120;2023-10-31T00:58:56;31.63;;;17.77;;
19043;SDS011;9654;52.302;8.120;2023-10-31T01:01:24;27.73;;;16.47;;
19043;SDS011;9654;52.302;8.120;2023-10-31T01:03:51;27.33;;;16.67;;
19043;SDS011;9654;52.302;8.120;2023-10-31T01:06:17;26.57;;;15.97;;
19043;SDS011;9654;52.302;8.120;2023-10-31T01:08:44;32.33;;;15.70;;
19043;SDS011;9654;52.302;8.120;2023-10-31T01:11:11;28.50;;;15.27;;
19043;SDS011;9654;52.302;8.120;2023-10-31T01:13:38;24.10;;;15.27;;
19043;SDS011;9654;52.302;8.120;2023-10-31T01:16:05;25.03;;;15.50;;
19043;SDS011;9654;52.302;8.120;2023-10-31T01:18:33;26.90;;;16.17;;
19043;SDS011;9654;52.302;8.120;2023-10-31T01:21:00;25.87;;;15.73;;
19043;SDS011;9654;52.302;8.120;2023-10-31T01:23:27;22.57;;;14.70;;
19043;SDS011;9654;52.302;8.120;2023-10-31T01:25:54;23.40;;;14.97;;
19043;SDS011;9654;52.302;8.120;2023-10-31T01:28:20;23.60;;;14.57;;
19043;SDS011;9654;52.302;8.120;2023-10-31T01:30:47;30.43;;;15.60;;
19043;SDS011;9654;52.302;8.120;2023-10-31T01:33:14;24.00;;;15.23;;
19043;SDS011;9654;52.302;8.120;2023-10-31T01:35:42;26.20;;;14.97;;
19043;SDS011;9654;52.302;8.120;2023-10-31T01:38:09;21.57;;;14.70;;
19043;SDS011;9654;52.302;8.120;2023-10-31T01:40:36;19.10;;;13.93;;
19043;SDS011;9654;52.302;8.120;2023-10-31T01:43:03;20.90;;;14.37;;
19043;SDS011;9654;52.302;8.120;2023-10-31T01:45:29;19.37;;;12.10;;
19043;SDS011;9654;52.302;8.120;2023-10-31T01:47:56;16.60;;;13.07;;
19043;SDS011;9654;52.302;8.120;2023-10-31T01:50:23;15.77;;;12.17;;
19043;SDS011;9654;52.302;8.120;2023-10-31T01:52:52;17.00;;;12.50;;
19043;SDS011;9654;52.302;8.120;2023-10-31T01:55:19;15.93;;;12.03;;
19043;SDS011;9654;52.302;8.120;2023-10-31T01:57:47;17.30;;;12.23;;
19043;SDS011;9654;52.302;8.120;2023-10-31T02:00:15;17.17;;;12.37;;
19043;SDS011;9654;52.302;8.120;2023-10-31T02:02:42;14.30;;;11.80;;
19043;SDS011;9654;52.302;8.120;2023-10-31T02:05:09;14.23;;;11.37;;
19043;SDS011;9654;52.302;8.120;2023-10-31T02:07:36;14.93;;;11.07;;
19043;SDS011;9654;52.302;8.120;2023-10-31T02:10:05;11.53;;;10.33;;
19043;SDS011;9654;52.302;8.120;2023-10-31T02:12:32;16.17;;;10.90;;
19043;SDS011;9654;52.302;8.120;2023-10-31T02:14:59;11.47;;;9.77;;
19043;SDS011;9654;52.302;8.120;2023-10-31T02:17:26;10.23;;;8.90;;
19043;SDS011;9654;52.302;8.120;2023-10-31T02:19:53;9.97;;;8.90;;
19043;SDS011;9654;52.302;8.120;2023-10-31T02:22:22;10.07;;;9.00;;
19043;SDS011;9654;52.302;8.120;2023-10-31T02:24:48;10.70;;;9.50;;
19043;SDS011;9654;52.302;8.120;2023-10-31T02:27:15;11.87;;;10.57;;
19043;SDS011;9654;52.302;8.120;2023-10-31T02:29:42;14.03;;;10.70;;
19043;SDS011;9654;52.302;8.120;2023-10-31T02:32:09;17.30;;;11.90;;
19043;SDS011;9654;52.302;8.120;2023-10-31T02:34:36;15.57;;;12.70;;
19043;SDS011;9654;52.302;8.120;2023-10-31T02:37:02;16.07;;;12.67;;
19043;SDS011;9654;52.302;8.120;2023-10-31T02:39:31;18.77;;;14.10;;
19043;SDS011;9654;52.302;8.120;2023-10-31T02:41:58;16.40;;;13.77;;
19043;SDS011;9654;52.302;8.120;2023-10-31T02:44:25;16.50;;;12.00;;
19043;SDS011;9654;52.302;8.120;2023-10-31T02:46:52;12.60;;;8.50;;
19043;SDS011;9654;52.302;8.120;2023-10-31T02:49:18;9.17;;;7.57;;
19043;SDS011;9654;52.302;8.120;2023-10-31T02:51:45;8.57;;;7.17;;
19043;SDS011;9654;52.302;8.120;2023-10-31T02:54:12;9.10;;;6.70;;
19043;SDS011;9654;52.302;8.120;2023-10-31T02:56:40;8.87;;;6.80;;
19043;SDS011;9654;52.302;8.120;2023-10-31T02:59:07;8.67;;;6.73;;
19043;SDS011;9654;52.302;8.120;2023-10-31T03:01:34;9.00;;;7.10;;
19043;SDS011;9654;52.302;8.120;2023-10-31T03:04:02;7.67;;;5.90;;
19043;SDS011;9654;52.302;8.120;2023-10-31T03:06:29;7.40;;;5.90;;
19043;SDS011;9654;52.302;8.120;2023-10-31T03:08:55;6.00;;;5.03;;
19043;SDS011;9654;52.302;8.120;2023-10-31T03:11:22;7.70;;;5.27;;
19043;SDS011;9654;52.302;8.120;2023-10-31T03:13:51;5.67;;;5.00;;
19043;SDS011;9654;52.302;8.120;2023-10-31T03:16:18;4.77;;;4.30;;
19043;SDS011;9654;52.302;8.120;2023-10-31T03:18:46;3.03;;;2.63;;
19043;SDS011;9654;52.302;8.120;2023-10-31T03:21:13;2.50;;;2.30;;
19043;SDS011;9654;52.302;8.120;2023-10-31T03:23:41;3.77;;;1.60;;
19043;SDS011;9654;52.302;8.120;2023-10-31T03:26:07;1.83;;;1.33;;
19043;SDS011;9654;52.302;8.120;2023-10-31T03:28:34;1.40;;;0.97;;
19043;SDS011;9654;52.302;8.120;2023-10-31T03:31:03;3.93;;;1.13;;
19043;SDS011;9654;52.302;8.120;2023-10-31T03:33:29;0.70;;;0.70;;
19043;SDS011;9654;52.302;8.120;2023-10-31T03:35:57;2.80;;;1.07;;
19043;SDS011;9654;52.302;8.120;2023-10-31T03:38:24;0.97;;;0.40;;
19043;SDS011;9654;52.302;8.120;2023-10-31T03:40:50;0.50;;;0.50;;
19043;SDS011;9654;52.302;8.120;2023-10-31T03:43:17;0.70;;;0.60;;
19043;SDS011;9654;52.302;8.120;2023-10-31T03:45:45;0.37;;;0.30;;
19043;SDS011;9654;52.302;8.120;2023-10-31T03:48:13;0.40;;;0.40;;
19043;SDS011;9654;52.302;8.120;2023-10-31T03:50:40;0.47;;;0.47;;
19043;SDS011;9654;52.302;8.120;2023-10-31T03:53:07;4.83;;;0.73;;
19043;SDS011;9654;52.302;8.120;2023-10-31T03:55:34;0.33;;;0.33;;
19043;SDS011;9654;52.302;8.120;2023-10-31T03:58:01;0.73;;;0.40;;
19043;SDS011;9654;52.302;8.120;2023-10-31T04:00:27;1.43;;;0.50;;
19043;SDS011;9654;52.302;8.120;2023-10-31T04:02:54;2.83;;;1.07;;
19043;SDS011;9654;52.302;8.120;2023-10-31T04:05:22;1.23;;;0.73;;
19043;SDS011;9654;52.302;8.120;2023-10-31T04:07:49;0.60;;;0.60;;
19043;SDS011;9654;52.302;8.120;2023-10-31T04:10:17;0.93;;;0.77;;
19043;SDS011;9654;52.302;8.120;2023-10-31T04:12:44;2.80;;;0.50;;
19043;SDS011;9654;52.302;8.120;2023-10-31T04:15:11;0.80;;;0.80;;
19043;SDS011;9654;52.302;8.120;2023-10-31T04:17:38;2.10;;;1.10;;
19043;SDS011;9654;52.302;8.120;2023-10-31T04:20:06;6.33;;;1.57;;
19043;SDS011;9654;52.302;8.120;2023-10-31T04:22:34;0.80;;;0.80;;
19043;SDS011;9654;52.302;8.120;2023-10-31T04:25:01;0.93;;;0.93;;
19043;SDS011;9654;52.302;8.120;2023-10-31T04:27:28;1.23;;;0.90;;
19043;SDS011;9654;52.302;8.120;2023-10-31T04:29:55;0.80;;;0.73;;
19043;SDS011;9654;52.302;8.120;2023-10-31T04:32:21;2.77;;;0.70;;
19043;SDS011;9654;52.302;8.120;2023-10-31T04:34:48;2.70;;;0.80;;
19043;SDS011;9654;52.302;8.120;2023-10-31T04:37:15;3.97;;;1.10;;
19043;SDS011;9654;52.302;8.120;2023-10-31T04:39:43;1.23;;;1.07;;
19043;SDS011;9654;52.302;8.120;2023-10-31T04:42:10;1.60;;;1.30;;
19043;SDS011;9654;52.302;8.120;2023-10-31T04:44:36;3.50;;;1.63;;
19043;SDS011;9654;52.302;8.120;2023-10-31T04:47:03;3.27;;;1.97;;
19043;SDS011;9654;52.302;8.120;2023-10-31T04:49:30;4.40;;;2.57;;
19043;SDS011;9654;52.302;8.120;2023-10-31T04:51:57;4.07;;;3.10;;
19043;SDS011;9654;52.302;8.120;2023-10-31T04:54:24;4.77;;;3.70;;
19043;SDS011;9654;52.302;8.120;2023-10-31T04:56:52;7.23;;;4.13;;
19043;SDS011;9654;52.302;8.120;2023-10-31T04:59:18;6.93;;;4.50;;
19043;SDS011;9654;52.302;8.120;2023-10-31T05:01:48;8.00;;;4.83;;
19043;SDS011;9654;52.302;8.120;2023-10-31T05:04:16;12.93;;;5.53;;
19043;SDS011;9654;52.302;8.120;2023-10-31T05:06:43;7.63;;;5.63;;
19043;SDS011;9654;52.302;8.120;2023-10-31T05:09:10;6.97;;;4.97;;
19043;SDS011;9654;52.302;8.120;2023-10-31T05:11:36;10.20;;;5.60;;
19043;SDS011;9654;52.302;8.120;2023-10-31T05:14:06;10.10;;;5.73;;
19043;SDS011;9654;52.302;8.120;2023-10-31T05:16:38;11.73;;;6.37;;
19043;SDS011;9654;52.302;8.120;2023-10-31T05:19:05;8.83;;;6.53;;
19043;SDS011;9654;52.302;8.120;2023-10-31T05:21:32;13.87;;;6.73;;
19043;SDS011;9654;52.302;8.120;2023-10-31T05:23:59;13.23;;;7.37;;
19043;SDS011;9654;52.302;8.120;2023-10-31T05:26:26;12.23;;;7.00;;
19043;SDS011;9654;52.302;8.120;2023-10-31T05:28:54;10.83;;;6.93;;
19043;SDS011;9654;52.302;8.120;2023-10-31T05:31:22;14.33;;;7.20;;
19043;SDS011;9654;52.302;8.120;2023-10-31T05:33:49;10.90;;;7.30;;
19043;SDS011;9654;52.302;8.120;2023-10-31T05:36:17;17.93;;;8.33;;
19043;SDS011;9654;52.302;8.120;2023-10-31T05:38:45;17.07;;;8.97;;
19043;SDS011;9654;52.302;8.120;2023-10-31T05:41:12;13.47;;;7.90;;
19043;SDS011;9654;52.302;8.120;2023-10-31T05:43:39;13.83;;;7.67;;
19043;SDS011;9654;52.302;8.120;2023-10-31T05:46:06;14.00;;;8.33;;
19043;SDS011;9654;52.302;8.120;2023-10-31T05:48:36;17.83;;;7.97;;
19043;SDS011;9654;52.302;8.120;2023-10-31T05:51:04;15.00;;;7.70;;
19043;SDS011;9654;52.302;8.120;2023-10-31T05:53:30;13.60;;;7.40;;
19043;SDS011;9654;52.302;8.120;2023-10-31T05:55:59;12.70;;;6.93;;
19043;SDS011;9654;52.302;8.120;2023-10-31T05:58:26;11.53;;;6.67;;
19043;SDS011;9654;52.302;8.120;2023-10-31T06:00:52;15.57;;;7.37;;
19043;SDS011;9654;52.302;8.120;2023-10-31T06:03:19;14.70;;;6.93;;
19043;SDS011;9654;52.302;8.120;2023-10-31T06:05:47;10.47;;;7.00;;
19043;SDS011;9654;52.302;8.120;2023-10-31T06:08:14;12.43;;;6.63;;
19043;SDS011;9654;52.302;8.120;2023-10-31T06:10:41;11.23;;;6.10;;
19043;SDS011;9654;52.302;8.120;2023-10-31T06:13:08;14.90;;;7.17;;
19043;SDS011;9654;52.302;8.120;2023-10-31T06:15:35;8.57;;;6.10;;
19043;SDS011;9654;52.302;8.120;2023-10-31T06:18:02;10.93;;;5.37;;
19043;SDS011;9654;52.302;8.120;2023-10-31T06:20:29;11.37;;;5.57;;
19043;SDS011;9654;52.302;8.120;2023-10-31T06:22:57;7.90;;;5.13;;
19043;SDS011;9654;52.302;8.120;2023-10-31T06:25:24;11.87;;;5.63;;
19043;SDS011;9654;52.302;8.120;2023-10-31T06:27:51;9.33;;;5.33;;
19043;SDS011;9654;52.302;8.120;2023-10-31T06:30:18;9.10;;;5.43;;
19043;SDS011;9654;52.302;8.120;2023-10-31T06:32:45;8.87;;;5.60;;
19043;SDS011;9654;52.302;8.120;2023-10-31T06:35:11;10.23;;;5.53;;
19043;SDS011;9654;52.302;8.120;2023-10-31T06:37:38;9.80;;;5.10;;
19043;SDS011;9654;52.302;8.120;2023-10-31T06:40:08;7.47;;;5.20;;
19043;SDS011;9654;52.302;8.120;2023-10-31T06:42:35;5.30;;;4.80;;
19043;SDS011;9654;52.302;8.120;2023-10-31T06:45:02;7.77;;;4.87;;
19043;SDS011;9654;52.302;8.120;2023-10-31T06:47:29;11.53;;;5.20;;
19043;SDS011;9654;52.302;8.120;2023-10-31T06:49:56;9.43;;;5.73;;
19043;SDS011;9654;52.302;8.120;2023-10-31T06:52:23;5.97;;;4.80;;
19043;SDS011;9654;52.302;8.120;2023-10-31T06:54:50;10.97;;;4.87;;
19043;SDS011;9654;52.302;8.120;2023-10-31T06:57:18;7.00;;;5.30;;
19043;SDS011;9654;52.302;8.120;2023-10-31T06:59:44;8.90;;;5.50;;
19043;SDS011;9654;52.302;8.120;2023-10-31T07:02:11;7.57;;;5.70;;
19043;SDS011;9654;52.302;8.120;2023-10-31T07:04:39;12.43;;;9.40;;
19043;SDS011;9654;52.302;8.120;2023-10-31T07:07:05;15.17;;;6.07;;
19043;SDS011;9654;52.302;8.120;2023-10-31T07:09:32;18.30;;;6.70;;
19043;SDS011;9654;52.302;8.120;2023-10-31T07:11:59;9.47;;;6.73;;
19043;SDS011;9654;52.302;8.120;2023-10-31T07:14:28;6.53;;;5.07;;
19043;SDS011;9654;52.302;8.120;2023-10-31T07:16:55;7.03;;;4.77;;
19043;SDS011;9654;52.302;8.120;2023-10-31T07:19:22;7.87;;;4.90;;
19043;SDS011;9654;52.302;8.120;2023-10-31T07:21:49;9.07;;;6.10;;
19043;SDS011;9654;52.302;8.120;2023-10-31T07:24:16;7.70;;;4.93;;
19043;SDS011;9654;52.302;8.120;2023-10-31T07:26:42;6.70;;;4.97;;
19043;SDS011;9654;52.302;8.120;2023-10-31T07:29:09;7.80;;;5.40;;
19043;SDS011;9654;52.302;8.120;2023-10-31T07:31:38;6.43;;;5.57;;
19043;SDS011;9654;52.302;8.120;2023-10-31T07:34:05;10.77;;;8.23;;
19043;SDS011;9654;52.302;8.120;2023-10-31T07:36:32;29.40;;;20.63;;
19043;SDS011;9654;52.302;8.120;2023-10-31T07:39:00;11.00;;;7.43;;
19043;SDS011;9654;52.302;8.120;2023-10-31T07:41:27;5.43;;;4.47;;
19043;SDS011;9654;52.302;8.120;2023-10-31T07:43:53;4.30;;;3.90;;
19043;SDS011;9654;52.302;8.120;2023-10-31T07:46:20;5.57;;;4.87;;
19043;SDS011;9654;52.302;8.120;2023-10-31T07:48:49;4.73;;;4.33;;
19043;SDS011;9654;52.302;8.120;2023-10-31T07:51:16;5.80;;;4.23;;
19043;SDS011;9654;52.302;8.120;2023-10-31T07:53:43;3.80;;;3.50;;
19043;SDS011;9654;52.302;8.120;2023-10-31T07:56:14;3.83;;;3.27;;
19043;SDS011;9654;52.302;8.120;2023-10-31T07:58:41;4.20;;;3.30;;
19043;SDS011;9654;52.302;8.120;2023-10-31T08:01:08;4.03;;;3.63;;
19043;SDS011;9654;52.302;8.120;2023-10-31T08:03:35;3.80;;;3.30;;
19043;SDS011;9654;52.302;8.120;2023-10-31T08:06:04;5.47;;;3.33;;
19043;SDS011;9654;52.302;8.120;2023-10-31T08:08:32;3.47;;;3.17;;
19043;SDS011;9654;52.302;8.120;2023-10-31T08:10:59;2.73;;;2.53;;
19043;SDS011;9654;52.302;8.120;2023-10-31T08:13:26;2.40;;;2.30;;
19043;SDS011;9654;52.302;8.120;2023-10-31T08:15:53;5.77;;;2.67;;
19043;SDS011;9654;52.302;8.120;2023-10-31T08:18:21;3.63;;;2.43;;
19043;SDS011;9654;52.302;8.120;2023-10-31T08:20:50;3.20;;;2.57;;
19043;SDS011;9654;52.302;8.120;2023-10-31T08:23:18;3.67;;;2.63;;
19043;SDS011;9654;52.302;8.120;2023-10-31T08:25:45;3.63;;;2.90;;
19043;SDS011;9654;52.302;8.120;2023-10-31T08:28:12;3.40;;;3.10;;
19043;SDS011;9654;52.302;8.120;2023-10-31T08:30:38;2.77;;;2.57;;
19043;SDS011;9654;52.302;8.120;2023-10-31T08:33:05;2.83;;;2.63;;
19043;SDS011;9654;52.302;8.120;2023-10-31T08:35:32;3.17;;;2.97;;
19043;SDS011;9654;52.302;8.120;2023-10-31T08:37:59;4.03;;;3.30;;
19043;SDS011;9654;52.302;8.120;2023-10-31T08:40:27;5.63;;;2.63;;
19043;SDS011;9654;52.302;8.120;2023-10-31T08:42:54;3.20;;;2.90;;
19043;SDS011;9654;52.302;8.120;2023-10-31T08:45:21;3.23;;;2.90;;
19043;SDS011;9654;52.302;8.120;2023-10-31T08:47:48;2.70;;;2.13;;
19043;SDS011;9654;52.302;8.120;2023-10-31T08:50:15;2.57;;;2.33;;
19043;SDS011;9654;52.302;8.120;2023-10-31T08:52:42;2.37;;;2.17;;
19043;SDS011;9654;52.302;8.120;2023-10-31T08:55:08;1.83;;;1.60;;
19043;SDS011;9654;52.302;8.120;2023-10-31T08:57:37;4.27;;;1.77;;
19043;SDS011;9654;52.302;8.120;2023-10-31T09:00:04;3.73;;;2.10;;
19043;SDS011;9654;52.302;8.120;2023-10-31T09:02:32;1.60;;;1.50;;
19043;SDS011;9654;52.302;8.120;2023-10-31T09:04:59;1.93;;;1.57;;
19043;SDS011;9654;52.302;8.120;2023-10-31T09:07:26;1.70;;;1.60;;
19043;SDS011;9654;52.302;8.120;2023-10-31T09:09:53;4.13;;;3.73;;
19043;SDS011;9654;52.302;8.120;2023-10-31T09:12:20;14.40;;;9.73;;
19043;SDS011;9654;52.302;8.120;2023-10-31T09:14:48;4.10;;;3.07;;
19043;SDS011;9654;52.302;8.120;2023-10-31T09:17:15;2.90;;;2.10;;
19043;SDS011;9654;52.302;8.120;2023-10-31T09:19:41;3.17;;;2.13;;
19043;SDS011;9654;52.302;8.120;2023-10-31T09:22:08;2.07;;;1.93;;
19043;SDS011;9654;52.302;8.120;2023-10-31T09:24:35;4.63;;;4.23;;
19043;SDS011;9654;52.302;8.120;2023-10-31T09:27:02;2.93;;;2.73;;
19043;SDS011;9654;52.302;8.120;2023-10-31T09:29:29;2.90;;;2.60;;
19043;SDS011;9654;52.302;8.120;2023-10-31T09:31:57;2.63;;;1.90;;
19043;SDS011;9654;52.302;8.120;2023-10-31T09:34:24;2.83;;;2.10;;
19043;SDS011;9654;52.302;8.120;2023-10-31T09:36:51;4.47;;;3.47;;
19043;SDS011;9654;52.302;8.120;2023-10-31T09:39:18;2.80;;;2.60;;
19043;SDS011;9654;52.302;8.120;2023-10-31T09:41:45;3.70;;;2.67;;
19043;SDS011;9654;52.302;8.120;2023-10-31T09:44:13;3.97;;;3.20;;
19043;SDS011;9654;52.302;8.120;2023-10-31T09:46:40;2.40;;;2.20;;
19043;SDS011;9654;52.302;8.120;2023-10-31T09:49:08;4.20;;;2.77;;
19043;SDS011;9654;52.302;8.120;2023-10-31T09:51:36;4.07;;;3.40;;
19043;SDS011;9654;52.302;8.120;2023-10-31T09:54:04;4.10;;;3.20;;
19043;SDS011;9654;52.302;8.120;2023-10-31T09:56:32;3.63;;;2.67;;
19043;SDS011;9654;52.302;8.120;2023-10-31T09:59:00;5.37;;;3.23;;
19043;SDS011;9654;52.302;8.120;2023-10-31T10:01:28;4.40;;;3.10;;
19043;SDS011;9654;52.302;8.120;2023-10-31T10:03:55;2.77;;;2.57;;
19043;SDS011;9654;52.302;8.120;2023-10-31T10:06:27;3.87;;;2.60;;
19043;SDS011;9654;52.302;8.120;2023-10-31T10:08:55;3.80;;;2.50;;
19043;SDS011;9654;52.302;8.120;2023-10-31T10:11:23;3.90;;;2.90;;
19043;SDS011;9654;52.302;8.120;2023-10-31T10:13:51;4.20;;;2.80;;
19043;SDS011;9654;52.302;8.120;2023-10-31T10:16:27;3.10;;;2.80;;
19043;SDS011;9654;52.302;8.120;2023-10-31T10:18:55;3.37;;;2.47;;
19043;SDS011;9654;52.302;8.120;2023-10-31T10:21:22;5.53;;;2.90;;
19043;SDS011;9654;52.302;8.120;2023-10-31T10:23:52;5.97;;;2.70;;
19043;SDS011;9654;52.302;8.120;2023-10-31T10:26:19;2.77;;;2.57;;
19043;SDS011;9654;52.302;8.120;2023-10-31T10:28:50;3.73;;;2.33;;
19043;SDS011;9654;52.302;8.120;2023-10-31T10:31:17;3.63;;;2.30;;
19043;SDS011;9654;52.302;8.120;2023-10-31T10:33:45;2.00;;;1.90;;
19043;SDS011;9654;52.302;8.120;2023-10-31T10:36:12;4.27;;;2.33;;
19043;SDS011;9654;52.302;8.120;2023-10-31T10:38:40;5.77;;;2.33;;
19043;SDS011;9654;52.302;8.120;2023-10-31T10:41:11;5.10;;;2.13;;
19043;SDS011;9654;52.302;8.120;2023-10-31T10:43:43;4.27;;;2.30;;
19043;SDS011;9654;52.302;8.120;2023-10-31T10:46:13;3.43;;;2.13;;
19043;SDS011;9654;52.302;8.120;2023-10-31T10:48:44;3.40;;;1.97;;
19043;SDS011;9654;52.302;8.120;2023-10-31T10:51:15;4.90;;;2.10;;
19043;SDS011;9654;52.302;8.120;2023-10-31T10:53:48;2.00;;;1.80;;
19043;SDS011;9654;52.302;8.120;2023-10-31T10:56:21;4.87;;;2.10;;
19043;SDS011;9654;52.302;8.120;2023-10-31T10:58:55;2.57;;;1.67;;
19043;SDS011;9654;52.302;8.120;2023-10-31T11:01:28;2.77;;;1.57;;
19043;SDS011;9654;52.302;8.120;2023-10-31T11:03:57;2.27;;;1.63;;
19043;SDS011;9654;52.302;8.120;2023-10-31T11:06:25;2.03;;;1.50;;
19043;SDS011;9654;52.302;8.120;2023-10-31T11:08:53;3.17;;;1.60;;
19043;SDS011;9654;52.302;8.120;2023-10-31T11:11:22;4.03;;;2.00;;
19043;SDS011;9654;52.302;8.120;2023-10-31T11:13:50;1.90;;;1.80;;
19043;SDS011;9654;52.302;8.120;2023-10-31T11:16:19;1.80;;;1.67;;
19043;SDS011;9654;52.302;8.120;2023-10-31T11:18:52;2.73;;;1.47;;
19043;SDS011;9654;52.302;8.120;2023-10-31T11:21:20;2.80;;;1.87;;
19043;SDS011;9654;52.302;8.120;2023-10-31T11:23:56;3.10;;;1.40;;
19043;SDS011;9654;52.302;8.120;2023-10-31T11:26:26;3.27;;;2.13;;
19043;SDS011;9654;52.302;8.120;2023-10-31T11:29:01;7.83;;;4.30;;
19043;SDS011;9654;52.302;8.120;2023-10-31T11:31:30;2.90;;;2.50;;
19043;SDS011;9654;52.302;8.120;2023-10-31T11:33:57;3.33;;;2.90;;
19043;SDS011;9654;52.302;8.120;2023-10-31T11:36:26;5.43;;;2.20;;
19043;SDS011;9654;52.302;8.120;2023-10-31T11:38:54;3.33;;;2.30;;
19043;SDS011;9654;52.302;8.120;2023-10-31T11:41:39;3.20;;;1.77;;
19043;SDS011;9654;52.302;8.120;2023-10-31T11:44:06;1.80;;;1.73;;
19043;SDS011;9654;52.302;8.120;2023-10-31T11:46:33;5.97;;;1.97;;
19043;SDS011;9654;52.302;8.120;2023-10-31T11:49:00;2.40;;;1.27;;
19043;SDS011;9654;52.302;8.120;2023-10-31T11:51:30;3.30;;;1.90;;
19043;SDS011;9654;52.302;8.120;2023-10-31T11:53:57;1.30;;;1.30;;
19043;SDS011;9654;52.302;8.120;2023-10-31T11:56:25;7.30;;;1.83;;
19043;SDS011;9654;52.302;8.120;2023-10-31T11:58:57;2.20;;;1.27;;
19043;SDS011;9654;52.302;8.120;2023-10-31T12:01:24;3.43;;;1.30;;
19043;SDS011;9654;52.302;8.120;2023-10-31T12:03:51;3.20;;;1.60;;
19043;SDS011;9654;52.302;8.120;2023-10-31T12:06:18;2.30;;;1.40;;
19043;SDS011;9654;52.302;8.120;2023-10-31T12:08:46;2.50;;;1.50;;
19043;SDS011;9654;52.302;8.120;2023-10-31T12:11:14;3.43;;;1.30;;
19043;SDS011;9654;52.302;8.120;2023-10-31T12:13:52;2.53;;;1.20;;
19043;SDS011;9654;52.302;8.120;2023-10-31T12:16:24;4.40;;;1.30;;
19043;SDS011;9654;52.302;8.120;2023-10-31T12:18:55;7.03;;;1.40;;
19043;SDS011;9654;52.302;8.120;2023-10-31T12:21:38;1.73;;;1.27;;
19043;SDS011;9654;52.302;8.120;2023-10-31T12:24:09;1.13;;;0.77;;
19043;SDS011;9654;52.302;8.120;2023-10-31T12:26:37;2.67;;;1.10;;
19043;SDS011;9654;52.302;8.120;2023-10-31T12:29:08;2.83;;;1.97;;
19043;SDS011;9654;52.302;8.120;2023-10-31T12:31:40;4.23;;;1.50;;
19043;SDS011;9654;52.302;8.120;2023-10-31T12:34:10;2.13;;;1.20;;
19043;SDS011;9654;52.302;8.120;2023-10-31T12:36:37;3.50;;;1.53;;
19043;SDS011;9654;52.302;8.120;2023-10-31T12:39:06;1.83;;;1.13;;
19043;SDS011;9654;52.302;8.120;2023-10-31T12:41:35;3.70;;;0.90;;
19043;SDS011;9654;52.302;8.120;2023-10-31T12:44:04;1.47;;;1.00;;
19043;SDS011;9654;52.302;8.120;2023-10-31T12:46:32;1.17;;;0.93;;
19043;SDS011;9654;52.302;8.120;2023-10-31T12:49:01;6.63;;;3.33;;
19043;SDS011;9654;52.302;8.120;2023-10-31T12:51:28;2.17;;;1.00;;
19043;SDS011;9654;52.302;8.120;2023-10-31T12:53:55;1.83;;;1.13;;
19043;SDS011;9654;52.302;8.120;2023-10-31T12:56:34;1.97;;;0.80;;
19043;SDS011;9654;52.302;8.120;2023-10-31T12:59:05;2.00;;;0.83;;
19043;SDS011;9654;52.302;8.120;2023-10-31T13:01:33;1.90;;;0.70;;
19043;SDS011;9654;52.302;8.120;2023-10-31T13:04:02;5.07;;;1.00;;
19043;SDS011;9654;52.302;8.120;2023-10-31T13:06:30;2.50;;;1.07;;
19043;SDS011;9654;52.302;8.120;2023-10-31T13:08:56;2.83;;;0.90;;
19043;SDS011;9654;52.302;8.120;2023-10-31T13:11:24;4.10;;;1.00;;
19043;SDS011;9654;52.302;8.120;2023-10-31T13:13:55;4.90;;;1.37;;
19043;SDS011;9654;52.302;8.120;2023-10-31T13:16:22;1.17;;;0.77;;
19043;SDS011;9654;52.302;8.120;2023-10-31T13:18:49;1.90;;;1.60;;
19043;SDS011;9654;52.302;8.120;2023-10-31T13:21:17;3.30;;;1.20;;
19043;SDS011;9654;52.302;8.120;2023-10-31T13:23:44;1.63;;;1.13;;
19043;SDS011;9654;52.302;8.120;2023-10-31T13:26:12;1.23;;;0.60;;
19043;SDS011;9654;52.302;8.120;2023-10-31T13:28:39;2.83;;;1.10;;
19043;SDS011;9654;52.302;8.120;2023-10-31T13:31:06;0.77;;;0.77;;
19043;SDS011;9654;52.302;8.120;2023-10-31T13:33:33;4.13;;;1.00;;
19043;SDS011;9654;52.302;8.120;2023-10-31T13:36:03;4.30;;;1.57;;
19043;SDS011;9654;52.302;8.120;2023-10-31T13:38:32;0.83;;;0.83;;
19043;SDS011;9654;52.302;8.120;2023-10-31T13:41:01;1.17;;;0.90;;
19043;SDS011;9654;52.302;8.120;2023-10-31T13:43:27;3.30;;;1.03;;
19043;SDS011;9654;52.302;8.120;2023-10-31T13:45:54;3.33;;;0.70;;
19043;SDS011;9654;52.302;8.120;2023-10-31T13:48:21;2.00;;;0.80;;
19043;SDS011;9654;52.302;8.120;2023-10-31T13:50:48;1.80;;;0.60;;
19043;SDS011;9654;52.302;8.120;2023-10-31T13:53:15;1.20;;;0.40;;
19043;SDS011;9654;52.302;8.120;2023-10-31T13:55:43;1.30;;;0.70;;
19043;SDS011;9654;52.302;8.120;2023-10-31T13:58:11;2.93;;;0.43;;
19043;SDS011;9654;52.302;8.120;2023-10-31T14:00:38;9.20;;;0.80;;
19043;SDS011;9654;52.302;8.120;2023-10-31T14:03:04;0.67;;;0.50;;
19043;SDS011;9654;52.302;8.120;2023-10-31T14:05:31;1.53;;;0.50;;
19043;SDS011;9654;52.302;8.120;2023-10-31T14:07:58;1.10;;;0.80;;
19043;SDS011;9654;52.302;8.120;2023-10-31T14:10:26;1.87;;;0.57;;
19043;SDS011;9654;52.302;8.120;2023-10-31T14:12:54;5.63;;;3.10;;
19043;SDS011;9654;52.302;8.120;2023-10-31T14:15:21;0.80;;;0.80;;
19043;SDS011;9654;52.302;8.120;2023-10-31T14:17:48;1.33;;;1.23;;
19043;SDS011;9654;52.302;8.120;2023-10-31T14:20:15;1.40;;;0.60;;
19043;SDS011;9654;52.302;8.120;2023-10-31T14:22:46;0.70;;;0.53;;
19043;SDS011;9654;52.302;8.120;2023-10-31T14:25:14;2.40;;;0.80;;
19043;SDS011;9654;52.302;8.120;2023-10-31T14:27:41;0.60;;;0.60;;
19043;SDS011;9654;52.302;8.120;2023-10-31T14:30:10;0.80;;;0.70;;
19043;SDS011;9654;52.302;8.120;2023-10-31T14:32:38;1.90;;;0.60;;
19043;SDS011;9654;52.302;8.120;2023-10-31T14:35:06;0.93;;;0.87;;
19043;SDS011;9654;52.302;8.120;2023-10-31T14:37:33;2.73;;;0.80;;
19043;SDS011;9654;52.302;8.120;2023-10-31T14:40:00;1.10;;;0.60;;
19043;SDS011;9654;52.302;8.120;2023-10-31T14:42:28;1.00;;;0.70;;
19043;SDS011;9654;52.302;8.120;2023-10-31T14:44:55;2.50;;;0.73;;
19043;SDS011;9654;52.302;8.120;2023-10-31T14:47:24;1.80;;;0.60;;
19043;SDS011;9654;52.302;8.120;2023-10-31T14:49:50;0.73;;;0.73;;
19043;SDS011;9654;52.302;8.120;2023-10-31T14:52:17;1.80;;;1.00;;
19043;SDS011;9654;52.302;8.120;2023-10-31T14:54:44;2.30;;;0.87;;
19043;SDS011;9654;52.302;8.120;2023-10-31T14:57:11;3.63;;;0.80;;